createdAt,value
2023-02-20T00:00:55.965Z,100198.50
2023-02-20T00:05:58.531Z,100198.78
2023-02-20T00:11:00.992Z,100191.66
2023-02-20T00:16:03.795Z,100191.50
2023-02-20T00:21:06.867Z,100182.63
2023-02-20T00:26:11.500Z,100172.50
2023-02-20T00:31:18.709Z,100165.41
2023-02-20T00:36:22.166Z,100165.00
2023-02-20T00:41:24.703Z,100170.94
2023-02-20T00:46:27.284Z,100167.06
2023-02-20T00:51:30.285Z,100170.97
2023-02-20T00:56:32.833Z,100166.91
2023-02-20T01:01:35.460Z,100162.63
2023-02-20T01:06:37.976Z,100165.81
2023-02-20T01:11:43.204Z,100161.25
2023-02-20T01:16:47.417Z,100171.81
2023-02-20T01:21:51.533Z,100172.81
2023-02-20T01:26:54.036Z,100168.91
2023-02-20T01:31:56.616Z,100156.81
2023-02-20T01:37:00.439Z,100157.38
2023-02-20T01:42:07.815Z,100164.09
2023-02-20T01:47:16.645Z,100166.59
2023-02-20T01:52:29.032Z,100175.75
2023-02-20T01:57:35.046Z,100179.06
2023-02-20T02:02:39.614Z,100182.13
2023-02-20T02:07:42.082Z,100185.06
2023-02-20T02:12:51.723Z,100199.91
2023-02-20T02:18:16.666Z,100212.66
2023-02-20T02:23:45.210Z,100202.00
2023-02-20T02:29:09.633Z,100197.81
2023-02-20T02:34:52.096Z,100202.25
2023-02-20T02:40:14.033Z,100212.94
2023-02-20T02:45:54.920Z,100222.69
2023-02-20T02:51:04.286Z,100214.47
2023-02-20T02:56:22.029Z,100216.56
2023-02-20T03:01:24.783Z,100215.31
2023-02-20T03:06:34.760Z,100210.88
2023-02-20T03:11:39.510Z,100211.84
2023-02-20T03:16:45.932Z,100209.19
2023-02-20T03:21:50.747Z,100215.00
2023-02-20T03:26:57.037Z,100207.22
2023-02-20T03:32:23.620Z,100213.47
2023-02-20T03:37:49.005Z,100212.88
2023-02-20T03:43:15.573Z,100202.16
2023-02-20T03:48:24.597Z,100192.31
2023-02-20T03:53:27.964Z,100197.03
2023-02-20T03:58:34.100Z,100210.25
2023-02-20T04:03:41.642Z,100212.59
2023-02-20T04:08:56.464Z,100202.44
2023-02-20T04:14:00.576Z,100207.44
2023-02-20T04:19:05.016Z,100197.59
2023-02-20T04:24:11.615Z,100199.41
2023-02-20T04:29:15.146Z,100198.59
2023-02-20T04:34:18.376Z,100192.94
2023-02-20T04:39:25.302Z,100199.06
2023-02-20T04:44:38.865Z,100195.34
2023-02-20T04:49:48.557Z,100197.75
2023-02-20T04:54:56.672Z,100206.59
2023-02-20T05:00:00.896Z,100202.16
2023-02-20T05:05:15.395Z,100213.63
2023-02-20T05:10:22.913Z,100200.19
2023-02-20T05:15:26.708Z,100210.13
2023-02-20T05:20:52.790Z,100207.47
2023-02-20T05:25:56.005Z,100229.31
2023-02-20T05:30:58.592Z,100223.53
2023-02-20T05:36:01.628Z,100224.81
2023-02-20T05:41:04.218Z,100225.66
2023-02-20T05:46:06.828Z,100215.78
2023-02-20T05:51:09.540Z,100192.56
2023-02-20T05:56:12.505Z,100191.25
2023-02-20T06:01:25.144Z,100169.88
2023-02-20T06:06:35.854Z,100178.25
2023-02-20T06:11:39.471Z,100180.91
2023-02-20T06:16:42.006Z,100177.13
2023-02-20T06:21:47.464Z,100181.81
2023-02-20T06:26:54.905Z,100176.13
2023-02-20T06:32:00.695Z,100177.03
2023-02-20T06:37:03.978Z,100172.50
2023-02-20T06:42:06.971Z,100166.44
2023-02-20T06:47:09.499Z,100153.25
2023-02-20T06:52:12.158Z,100141.03
2023-02-20T06:57:15.811Z,100144.94
2023-02-20T07:02:18.609Z,100159.22
2023-02-20T07:07:21.231Z,100160.75
2023-02-20T07:12:25.097Z,100162.50
2023-02-20T07:17:27.876Z,100154.25
2023-02-20T07:22:30.478Z,100136.47
2023-02-20T07:27:33.049Z,100126.59
2023-02-20T07:32:35.604Z,100122.19
2023-02-20T07:37:38.149Z,100111.75
2023-02-20T07:42:40.752Z,100130.50
2023-02-20T07:47:52.945Z,100116.75
2023-02-20T07:52:55.518Z,100109.63
2023-02-20T07:57:58.616Z,100120.06
2023-02-20T08:03:01.260Z,100125.94
2023-02-20T08:08:03.733Z,100104.72
2023-02-20T08:13:06.215Z,100107.19
2023-02-20T08:18:22.137Z,100095.00
2023-02-20T08:23:26.088Z,100079.28
2023-02-20T08:28:28.605Z,100091.78
2023-02-20T08:33:31.292Z,100083.94
2023-02-20T08:38:39.027Z,100073.53
2023-02-20T08:43:44.141Z,100075.13
2023-02-20T08:48:46.892Z,100039.44
2023-02-20T08:53:49.858Z,100055.22
2023-02-20T08:58:52.595Z,100041.59
2023-02-20T09:03:55.992Z,100039.88
2023-02-20T09:08:58.454Z,100053.94
2023-02-20T09:14:01.120Z,100031.66
2023-02-20T09:19:03.714Z,100017.69
2023-02-20T09:24:06.924Z,100010.25
2023-02-20T09:29:09.547Z,100005.22
2023-02-20T09:34:12.343Z,100020.66
2023-02-20T09:39:18.142Z,100011.50
2023-02-20T09:44:58.828Z,100020.69
2023-02-20T09:50:07.901Z,100009.59
2023-02-20T09:55:20.846Z,100007.66
2023-02-20T10:00:33.837Z,100010.16
2023-02-20T10:05:37.166Z,100009.09
2023-02-20T10:10:39.901Z,99992.09
2023-02-20T10:15:51.562Z,99971.03
2023-02-20T10:21:35.703Z,99977.81
2023-02-20T10:26:47.442Z,99970.66
2023-02-20T10:32:01.329Z,99974.25
2023-02-20T10:37:14.498Z,99965.03
2023-02-20T10:42:24.310Z,99959.25
2023-02-20T10:47:45.910Z,99952.91
2023-02-20T10:52:55.185Z,99952.50
2023-02-20T10:58:05.063Z,99948.50
2023-02-20T11:03:37.426Z,99939.25
2023-02-20T11:08:40.014Z,99938.28
2023-02-20T11:13:42.456Z,99934.13
2023-02-20T11:18:45.113Z,99932.94
2023-02-20T11:23:47.680Z,99928.56
2023-02-20T11:29:53.483Z,99931.16
2023-02-20T11:35:29.578Z,99935.66
2023-02-20T11:40:39.916Z,99931.59
2023-02-20T11:45:42.720Z,99925.56
2023-02-20T11:50:50.254Z,99924.81
2023-02-20T11:56:14.881Z,99934.25
2023-02-20T12:01:33.835Z,99933.63
2023-02-20T12:06:39.364Z,99931.66
2023-02-20T12:11:42.224Z,99953.97
2023-02-20T12:16:50.673Z,99962.59
2023-02-20T12:22:06.102Z,99956.22
2023-02-20T12:27:34.531Z,99961.53
2023-02-20T12:32:55.502Z,99951.94
2023-02-20T12:38:44.230Z,99952.59
2023-02-20T12:44:12.925Z,99956.31
2023-02-20T12:49:19.407Z,99951.41
2023-02-20T12:54:45.383Z,99969.03
2023-02-20T13:00:09.161Z,99972.09
2023-02-20T13:05:18.971Z,99977.44
2023-02-20T13:10:34.055Z,99995.41
2023-02-20T13:15:54.567Z,99999.22
2023-02-20T13:21:03.361Z,99995.72
2023-02-20T13:26:35.015Z,99996.75
2023-02-20T13:31:39.100Z,99992.28
2023-02-20T13:36:46.553Z,99990.78
2023-02-20T13:41:55.094Z,99987.81
2023-02-20T13:47:27.757Z,99987.50
2023-02-20T13:52:32.011Z,99980.84
2023-02-20T13:57:42.629Z,99972.53
2023-02-20T14:02:45.324Z,99968.22
2023-02-20T14:07:47.883Z,99964.91
2023-02-20T14:13:15.906Z,99967.06
2023-02-20T14:18:29.258Z,99963.91
2023-02-20T14:23:35.615Z,99963.75
2023-02-20T14:28:55.060Z,99966.53
2023-02-20T14:34:18.496Z,99956.59
2023-02-20T14:40:32.608Z,99962.56
2023-02-20T14:45:26.554Z,99957.22
2023-02-20T14:50:33.073Z,99969.72
2023-02-20T14:55:43.307Z,99971.31
2023-02-20T15:00:54.188Z,99976.25
2023-02-20T15:06:05.433Z,99977.25
2023-02-20T15:11:29.510Z,99978.69
2023-02-20T15:16:54.514Z,99969.34
2023-02-20T15:27:27.567Z,99987.38
2023-02-20T15:32:34.134Z,99983.13
2023-02-20T15:37:48.990Z,99981.25
2023-02-20T15:42:58.447Z,99989.16
2023-02-20T15:48:02.739Z,99992.06
2023-02-20T15:53:30.108Z,99997.91
2023-02-20T15:58:37.966Z,99999.28
2023-02-20T16:03:52.421Z,100007.31
2023-02-20T16:08:55.554Z,100004.75
2023-02-20T16:14:01.472Z,100004.38
2023-02-20T16:19:12.332Z,100006.78
2023-02-20T16:24:16.147Z,100000.28
2023-02-20T16:29:41.389Z,100000.44
2023-02-20T16:34:45.997Z,100010.09
2023-02-20T16:39:49.155Z,100017.50
2023-02-20T16:44:55.522Z,100017.78
2023-02-20T16:50:07.662Z,100029.94
2023-02-20T16:55:22.618Z,100022.31
2023-02-20T17:00:28.600Z,100016.78
2023-02-20T17:05:32.510Z,100020.16
2023-02-20T17:10:36.243Z,100024.09
2023-02-20T17:15:40.025Z,100030.47
2023-02-20T17:20:45.781Z,100034.41
2023-02-20T17:25:49.721Z,100042.91
2023-02-20T17:30:54.696Z,100056.69
2023-02-20T17:35:58.038Z,100062.97
2023-02-20T17:41:01.257Z,100057.69
2023-02-20T17:46:04.173Z,100065.03
2023-02-20T17:51:06.703Z,100061.72
2023-02-20T17:56:15.162Z,100054.34
2023-02-20T18:01:18.209Z,100057.81
2023-02-20T18:06:21.680Z,100062.59
2023-02-20T18:11:24.520Z,100059.41
2023-02-20T18:16:29.615Z,100050.16
2023-02-20T18:21:32.591Z,100070.28
2023-02-20T18:26:36.196Z,100069.91
2023-02-20T18:31:39.988Z,100070.47
2023-02-20T18:36:42.764Z,100060.47
2023-02-20T18:41:56.459Z,100070.75
2023-02-20T18:47:00.856Z,100070.50
2023-02-20T18:52:05.205Z,100076.03
2023-02-20T18:57:07.727Z,100071.19
2023-02-20T19:02:15.792Z,100068.16
2023-02-20T19:07:19.425Z,100056.53
2023-02-20T19:12:22.054Z,100066.09
2023-02-20T19:17:28.721Z,100066.63
2023-02-20T19:22:31.379Z,100064.84
2023-02-20T19:27:33.888Z,100061.50
2023-02-20T19:32:36.804Z,100059.84
2023-02-20T19:37:39.603Z,100049.00
2023-02-20T19:42:42.157Z,100055.41
2023-02-20T19:47:44.745Z,100037.38
2023-02-20T19:52:47.653Z,100053.47
2023-02-20T19:57:50.193Z,100048.59
2023-02-20T20:02:53.290Z,100052.06
2023-02-20T20:07:55.825Z,100042.09
2023-02-20T20:12:58.406Z,100038.63
2023-02-20T20:18:01.727Z,100048.88
2023-02-20T20:23:05.955Z,100030.56
2023-02-20T20:28:09.620Z,100034.88
2023-02-20T20:33:12.345Z,100028.63
2023-02-20T20:38:14.827Z,100017.25
2023-02-20T20:43:17.426Z,100020.44
2023-02-20T20:48:20.066Z,100020.88
2023-02-20T20:53:22.579Z,100008.94
2023-02-20T20:58:25.210Z,100017.94
2023-02-20T21:03:27.991Z,100009.75
2023-02-20T21:08:33.488Z,100016.25
2023-02-20T21:13:37.407Z,100034.28
2023-02-20T21:18:39.899Z,100030.66
2023-02-20T21:23:45.578Z,100020.13
2023-02-20T21:28:48.446Z,100003.66
2023-02-20T21:33:53.152Z,99999.63
2023-02-20T21:38:55.694Z,99990.63
2023-02-20T21:44:16.463Z,99995.47
2023-02-20T21:49:19.700Z,100004.47
2023-02-20T21:54:25.758Z,100004.03
2023-02-20T21:59:28.053Z,100009.47
2023-02-20T22:04:30.393Z,99988.41
2023-02-20T22:09:51.184Z,100002.69
2023-02-20T22:15:11.917Z,100006.28
2023-02-20T22:20:32.597Z,100009.91
2023-02-20T22:25:53.581Z,100010.03
2023-02-20T22:31:15.078Z,100002.00
2023-02-20T22:36:36.456Z,99989.22
2023-02-20T22:41:58.304Z,99991.16
2023-02-20T22:47:19.418Z,99994.88
2023-02-20T22:52:40.259Z,99982.28
2023-02-20T22:58:01.064Z,99976.75
2023-02-20T23:03:22.363Z,99977.16
2023-02-20T23:08:43.170Z,99975.06
2023-02-20T23:14:06.991Z,99985.91
2023-02-20T23:19:29.352Z,99967.03
2023-02-20T23:24:50.165Z,99966.63
2023-02-20T23:30:11.634Z,99968.03
2023-02-20T23:35:34.961Z,99955.97
2023-02-20T23:40:56.111Z,99974.13
2023-02-20T23:46:17.059Z,99960.94
2023-02-20T23:51:38.782Z,99957.47
2023-02-20T23:56:59.667Z,99953.44
